sensor_id;sensor_type;location;lat;lon;timestamp;pressure;altitude;pressure_sealevel;temperature;humidity
53526;BME280;40551;50.478;19.378;2023-01-25T00:01:04;99811.69;;;1.45;96.87
53526;BME280;40551;50.478;19.378;2023-01-25T00:03:36;99811.60;;;1.40;96.98
53526;BME280;40551;50.478;19.378;2023-01-25T00:06:07;99804.39;;;1.42;97.10
53526;BME280;40551;50.478;19.378;2023-01-25T00:08:39;99802.56;;;1.39;97.09
53526;BME280;40551;50.478;19.378;2023-01-25T00:11:09;99805.09;;;1.41;97.15
53526;BME280;40551;50.478;19.378;2023-01-25T00:13:41;99810.57;;;1.41;97.32
53526;BME280;40551;50.478;19.378;2023-01-25T00:16:11;99815.98;;;1.44;97.02
53526;BME280;40551;50.478;19.378;2023-01-25T00:18:43;99814.70;;;1.39;97.31
53526;BME280;40551;50.478;19.378;2023-01-25T00:21:16;99815.02;;;1.40;97.14
53526;BME280;40551;50.478;19.378;2023-01-25T00:23:49;99815.85;;;1.41;96.96
53526;BME280;40551;50.478;19.378;2023-01-25T00:26:21;99816.52;;;1.42;97.06
53526;BME280;40551;50.478;19.378;2023-01-25T00:28:54;99810.33;;;1.44;96.94
53526;BME280;40551;50.478;19.378;2023-01-25T00:31:36;99807.73;;;1.46;96.99
53526;BME280;40551;50.478;19.378;2023-01-25T00:34:37;99802.58;;;1.47;96.87
53526;BME280;40551;50.478;19.378;2023-01-25T00:37:18;99797.56;;;1.49;96.99
53526;BME280;40551;50.478;19.378;2023-01-25T00:39:51;99791.17;;;1.52;97.23
53526;BME280;40551;50.478;19.378;2023-01-25T00:42:21;99792.35;;;1.54;97.15
53526;BME280;40551;50.478;19.378;2023-01-25T00:44:53;99793.91;;;1.53;97.26
53526;BME280;40551;50.478;19.378;2023-01-25T00:47:24;99793.48;;;1.58;97.05
53526;BME280;40551;50.478;19.378;2023-01-25T00:49:54;99784.23;;;1.59;96.85
53526;BME280;40551;50.478;19.378;2023-01-25T00:52:26;99781.23;;;1.53;96.99
53526;BME280;40551;50.478;19.378;2023-01-25T00:54:58;99778.61;;;1.57;97.01
53526;BME280;40551;50.478;19.378;2023-01-25T00:57:28;99777.70;;;1.59;97.09
53526;BME280;40551;50.478;19.378;2023-01-25T01:00:00;99776.52;;;1.59;97.23
53526;BME280;40551;50.478;19.378;2023-01-25T01:02:30;99779.00;;;1.63;97.46
53526;BME280;40551;50.478;19.378;2023-01-25T01:05:02;99781.78;;;1.61;97.18
53526;BME280;40551;50.478;19.378;2023-01-25T01:07:35;99782.40;;;1.64;96.97
53526;BME280;40551;50.478;19.378;2023-01-25T01:10:06;99781.64;;;1.68;97.00
53526;BME280;40551;50.478;19.378;2023-01-25T01:12:37;99782.56;;;1.65;97.13
53526;BME280;40551;50.478;19.378;2023-01-25T01:15:11;99779.94;;;1.67;96.72
53526;BME280;40551;50.478;19.378;2023-01-25T01:17:42;99779.73;;;1.69;96.90
53526;BME280;40551;50.478;19.378;2023-01-25T01:20:15;99773.17;;;1.71;96.81
53526;BME280;40551;50.478;19.378;2023-01-25T01:22:47;99768.66;;;1.75;96.91
53526;BME280;40551;50.478;19.378;2023-01-25T01:25:17;99763.48;;;1.77;96.76
53526;BME280;40551;50.478;19.378;2023-01-25T01:27:49;99757.73;;;1.74;96.87
53526;BME280;40551;50.478;19.378;2023-01-25T01:30:19;99757.14;;;1.77;97.05
53526;BME280;40551;50.478;19.378;2023-01-25T01:32:52;99755.30;;;1.75;96.99
53526;BME280;40551;50.478;19.378;2023-01-25T01:35:24;99752.51;;;1.78;96.77
53526;BME280;40551;50.478;19.378;2023-01-25T01:37:54;99750.77;;;1.80;96.70
53526;BME280;40551;50.478;19.378;2023-01-25T01:40:26;99743.99;;;1.76;96.43
53526;BME280;40551;50.478;19.378;2023-01-25T01:43:00;99736.77;;;1.78;96.64
53526;BME280;40551;50.478;19.378;2023-01-25T01:45:51;99731.44;;;1.80;96.69
53526;BME280;40551;50.478;19.378;2023-01-25T01:48:34;99721.99;;;1.81;96.35
53526;BME280;40551;50.478;19.378;2023-01-25T01:51:12;99719.23;;;1.82;96.43
53526;BME280;40551;50.478;19.378;2023-01-25T01:53:51;99717.83;;;1.83;96.61
53526;BME280;40551;50.478;19.378;2023-01-25T01:56:29;99717.48;;;1.84;96.38
53526;BME280;40551;50.478;19.378;2023-01-25T01:59:04;99716.94;;;1.85;96.14
53526;BME280;40551;50.478;19.378;2023-01-25T02:01:38;99716.75;;;1.86;96.18
53526;BME280;40551;50.478;19.378;2023-01-25T02:04:10;99715.52;;;1.88;96.26
53526;BME280;40551;50.478;19.378;2023-01-25T02:06:47;99716.70;;;1.89;96.35
53526;BME280;40551;50.478;19.378;2023-01-25T02:09:22;99723.02;;;1.88;95.81
53526;BME280;40551;50.478;19.378;2023-01-25T02:11:57;99725.95;;;1.88;95.91
53526;BME280;40551;50.478;19.378;2023-01-25T02:14:30;99718.26;;;1.87;95.99
53526;BME280;40551;50.478;19.378;2023-01-25T02:17:03;99721.13;;;1.89;95.98
53526;BME280;40551;50.478;19.378;2023-01-25T02:19:42;99725.34;;;1.92;96.20
53526;BME280;40551;50.478;19.378;2023-01-25T02:22:24;99723.26;;;1.93;96.00
53526;BME280;40551;50.478;19.378;2023-01-25T02:25:05;99720.52;;;1.93;96.02
53526;BME280;40551;50.478;19.378;2023-01-25T02:27:39;99717.92;;;1.94;96.03
53526;BME280;40551;50.478;19.378;2023-01-25T02:30:13;99720.29;;;1.96;96.19
53526;BME280;40551;50.478;19.378;2023-01-25T02:32:46;99715.63;;;1.97;96.00
53526;BME280;40551;50.478;19.378;2023-01-25T02:35:23;99708.64;;;1.96;95.84
53526;BME280;40551;50.478;19.378;2023-01-25T02:37:56;99705.02;;;1.97;95.63
53526;BME280;40551;50.478;19.378;2023-01-25T02:40:27;99702.98;;;1.96;95.56
53526;BME280;40551;50.478;19.378;2023-01-25T02:43:00;99704.34;;;1.97;95.66
53526;BME280;40551;50.478;19.378;2023-01-25T02:45:30;99702.81;;;1.97;95.74
53526;BME280;40551;50.478;19.378;2023-01-25T02:48:02;99705.79;;;1.93;96.01
53526;BME280;40551;50.478;19.378;2023-01-25T02:50:34;99703.86;;;1.95;95.84
53526;BME280;40551;50.478;19.378;2023-01-25T02:53:04;99706.05;;;1.97;95.86
53526;BME280;40551;50.478;19.378;2023-01-25T02:55:36;99704.77;;;1.93;95.88
53526;BME280;40551;50.478;19.378;2023-01-25T02:58:10;99709.86;;;1.95;95.78
53526;BME280;40551;50.478;19.378;2023-01-25T03:00:42;99704.20;;;1.96;95.84
53526;BME280;40551;50.478;19.378;2023-01-25T03:03:12;99702.13;;;1.97;95.74
53526;BME280;40551;50.478;19.378;2023-01-25T03:05:43;99707.50;;;1.94;95.91
53526;BME280;40551;50.478;19.378;2023-01-25T03:08:16;99699.06;;;1.96;95.99
53526;BME280;40551;50.478;19.378;2023-01-25T03:10:48;99701.24;;;1.98;96.02
53526;BME280;40551;50.478;19.378;2023-01-25T03:13:20;99698.85;;;1.97;95.63
53526;BME280;40551;50.478;19.378;2023-01-25T03:15:50;99698.92;;;1.95;95.10
53526;BME280;40551;50.478;19.378;2023-01-25T03:18:22;99694.81;;;1.87;95.24
53526;BME280;40551;50.478;19.378;2023-01-25T03:20:52;99700.99;;;1.86;95.10
53526;BME280;40551;50.478;19.378;2023-01-25T03:23:23;99699.95;;;1.80;95.19
53526;BME280;40551;50.478;19.378;2023-01-25T03:25:56;99694.27;;;1.81;95.37
53526;BME280;40551;50.478;19.378;2023-01-25T03:28:35;99693.44;;;1.80;95.10
53526;BME280;40551;50.478;19.378;2023-01-25T03:31:07;99694.34;;;1.78;95.00
53526;BME280;40551;50.478;19.378;2023-01-25T03:33:40;99689.38;;;1.78;95.19
53526;BME280;40551;50.478;19.378;2023-01-25T03:36:12;99689.70;;;1.79;95.18
53526;BME280;40551;50.478;19.378;2023-01-25T03:38:44;99688.46;;;1.81;95.51
53526;BME280;40551;50.478;19.378;2023-01-25T03:41:16;99689.15;;;1.81;95.17
53526;BME280;40551;50.478;19.378;2023-01-25T03:43:48;99685.45;;;1.78;95.19
53526;BME280;40551;50.478;19.378;2023-01-25T03:46:20;99689.10;;;1.75;94.89
53526;BME280;40551;50.478;19.378;2023-01-25T03:48:50;99683.00;;;1.72;94.87
53526;BME280;40551;50.478;19.378;2023-01-25T03:51:22;99683.66;;;1.65;94.96
53526;BME280;40551;50.478;19.378;2023-01-25T03:53:56;99682.15;;;1.65;95.26
53526;BME280;40551;50.478;19.378;2023-01-25T03:56:27;99678.58;;;1.64;95.19
53526;BME280;40551;50.478;19.378;2023-01-25T03:59:04;99678.58;;;1.64;95.23
53526;BME280;40551;50.478;19.378;2023-01-25T04:01:36;99675.71;;;1.62;95.18
53526;BME280;40551;50.478;19.378;2023-01-25T04:04:06;99673.48;;;1.62;95.05
53526;BME280;40551;50.478;19.378;2023-01-25T04:06:38;99669.34;;;1.56;95.45
53526;BME280;40551;50.478;19.378;2023-01-25T04:09:10;99665.25;;;1.56;95.21
53526;BME280;40551;50.478;19.378;2023-01-25T04:11:50;99659.17;;;1.52;95.16
53526;BME280;40551;50.478;19.378;2023-01-25T04:14:22;99659.10;;;1.48;94.80
53526;BME280;40551;50.478;19.378;2023-01-25T04:17:13;99656.61;;;1.44;95.24
53526;BME280;40551;50.478;19.378;2023-01-25T04:19:51;99656.81;;;1.43;95.21
53526;BME280;40551;50.478;19.378;2023-01-25T04:22:26;99652.92;;;1.40;95.23
53526;BME280;40551;50.478;19.378;2023-01-25T04:24:58;99650.67;;;1.42;95.69
53526;BME280;40551;50.478;19.378;2023-01-25T04:27:31;99648.95;;;1.42;95.28
53526;BME280;40551;50.478;19.378;2023-01-25T04:30:10;99646.77;;;1.41;95.64
53526;BME280;40551;50.478;19.378;2023-01-25T04:32:42;99647.61;;;1.41;95.55
53526;BME280;40551;50.478;19.378;2023-01-25T04:35:22;99646.06;;;1.42;95.52
53526;BME280;40551;50.478;19.378;2023-01-25T04:37:58;99648.13;;;1.42;95.33
53526;BME280;40551;50.478;19.378;2023-01-25T04:40:36;99649.00;;;1.41;95.21
53526;BME280;40551;50.478;19.378;2023-01-25T04:43:08;99644.73;;;1.40;95.41
53526;BME280;40551;50.478;19.378;2023-01-25T04:45:40;99642.82;;;1.42;95.56
53526;BME280;40551;50.478;19.378;2023-01-25T04:48:17;99648.15;;;1.40;95.45
53526;BME280;40551;50.478;19.378;2023-01-25T04:50:53;99643.77;;;1.38;95.37
53526;BME280;40551;50.478;19.378;2023-01-25T04:53:25;99648.05;;;1.36;95.16
53526;BME280;40551;50.478;19.378;2023-01-25T04:55:58;99643.63;;;1.36;95.36
53526;BME280;40551;50.478;19.378;2023-01-25T04:58:30;99639.54;;;1.35;95.42
53526;BME280;40551;50.478;19.378;2023-01-25T05:01:00;99637.33;;;1.35;95.48
53526;BME280;40551;50.478;19.378;2023-01-25T05:03:34;99638.44;;;1.31;95.59
53526;BME280;40551;50.478;19.378;2023-01-25T05:06:06;99634.46;;;1.33;95.74
53526;BME280;40551;50.478;19.378;2023-01-25T05:08:38;99638.03;;;1.34;95.40
53526;BME280;40551;50.478;19.378;2023-01-25T05:11:10;99637.68;;;1.34;95.19
53526;BME280;40551;50.478;19.378;2023-01-25T05:14:01;99638.41;;;1.32;95.21
53526;BME280;40551;50.478;19.378;2023-01-25T05:16:36;99634.65;;;1.24;95.05
53526;BME280;40551;50.478;19.378;2023-01-25T05:19:10;99636.23;;;1.22;95.20
53526;BME280;40551;50.478;19.378;2023-01-25T05:22:03;99633.23;;;1.19;95.36
53526;BME280;40551;50.478;19.378;2023-01-25T05:24:41;99625.77;;;1.16;95.18
53526;BME280;40551;50.478;19.378;2023-01-25T05:27:16;99623.02;;;1.17;95.57
53526;BME280;40551;50.478;19.378;2023-01-25T05:29:57;99617.73;;;1.16;95.15
53526;BME280;40551;50.478;19.378;2023-01-25T05:32:55;99616.21;;;1.15;95.35
53526;BME280;40551;50.478;19.378;2023-01-25T05:35:27;99616.40;;;1.15;95.31
53526;BME280;40551;50.478;19.378;2023-01-25T05:37:59;99615.91;;;1.14;95.19
53526;BME280;40551;50.478;19.378;2023-01-25T05:40:32;99614.58;;;1.12;94.98
53526;BME280;40551;50.478;19.378;2023-01-25T05:43:04;99616.14;;;1.11;95.03
53526;BME280;40551;50.478;19.378;2023-01-25T05:45:35;99617.67;;;1.11;95.20
53526;BME280;40551;50.478;19.378;2023-01-25T05:48:07;99617.17;;;1.10;95.02
53526;BME280;40551;50.478;19.378;2023-01-25T05:50:39;99624.04;;;1.08;94.99
53526;BME280;40551;50.478;19.378;2023-01-25T05:53:13;99626.48;;;1.06;94.74
53526;BME280;40551;50.478;19.378;2023-01-25T05:55:44;99622.86;;;1.00;94.51
53526;BME280;40551;50.478;19.378;2023-01-25T05:58:18;99629.54;;;0.91;94.79
53526;BME280;40551;50.478;19.378;2023-01-25T06:00:50;99624.48;;;0.87;94.80
53526;BME280;40551;50.478;19.378;2023-01-25T06:03:28;99622.09;;;0.87;94.99
53526;BME280;40551;50.478;19.378;2023-01-25T06:06:01;99619.52;;;0.87;95.00
53526;BME280;40551;50.478;19.378;2023-01-25T06:08:35;99616.73;;;0.91;94.93
53526;BME280;40551;50.478;19.378;2023-01-25T06:11:09;99616.55;;;0.91;94.94
53526;BME280;40551;50.478;19.378;2023-01-25T06:13:46;99613.31;;;0.91;94.77
53526;BME280;40551;50.478;19.378;2023-01-25T06:16:18;99612.45;;;0.91;94.84
53526;BME280;40551;50.478;19.378;2023-01-25T06:19:14;99613.77;;;0.94;94.83
53526;BME280;40551;50.478;19.378;2023-01-25T06:21:59;99611.66;;;0.96;95.04
53526;BME280;40551;50.478;19.378;2023-01-25T06:24:29;99607.36;;;0.98;94.89
53526;BME280;40551;50.478;19.378;2023-01-25T06:27:01;99606.20;;;0.97;95.27
53526;BME280;40551;50.478;19.378;2023-01-25T06:29:31;99609.39;;;0.99;94.87
53526;BME280;40551;50.478;19.378;2023-01-25T06:32:03;99611.32;;;0.96;95.07
53526;BME280;40551;50.478;19.378;2023-01-25T06:34:34;99611.29;;;0.98;94.80
53526;BME280;40551;50.478;19.378;2023-01-25T06:37:07;99609.73;;;0.99;94.81
53526;BME280;40551;50.478;19.378;2023-01-25T06:39:37;99609.04;;;1.00;94.70
53526;BME280;40551;50.478;19.378;2023-01-25T06:42:09;99607.94;;;0.94;94.69
53526;BME280;40551;50.478;19.378;2023-01-25T06:44:39;99606.75;;;0.94;94.73
53526;BME280;40551;50.478;19.378;2023-01-25T06:47:11;99611.30;;;0.89;94.60
53526;BME280;40551;50.478;19.378;2023-01-25T06:49:43;99611.13;;;0.90;94.75
53526;BME280;40551;50.478;19.378;2023-01-25T06:52:13;99609.90;;;0.90;95.02
53526;BME280;40551;50.478;19.378;2023-01-25T06:54:45;99611.84;;;0.87;94.87
53526;BME280;40551;50.478;19.378;2023-01-25T06:57:15;99604.14;;;0.88;94.80
53526;BME280;40551;50.478;19.378;2023-01-25T06:59:47;99602.84;;;0.85;94.90
53526;BME280;40551;50.478;19.378;2023-01-25T07:02:17;99595.11;;;0.87;95.05
53526;BME280;40551;50.478;19.378;2023-01-25T07:04:48;99596.00;;;0.84;95.02
53526;BME280;40551;50.478;19.378;2023-01-25T07:07:19;99597.15;;;0.87;94.88
53526;BME280;40551;50.478;19.378;2023-01-25T07:09:50;99595.02;;;0.83;95.13
53526;BME280;40551;50.478;19.378;2023-01-25T07:12:20;99589.83;;;0.86;95.16
53526;BME280;40551;50.478;19.378;2023-01-25T07:14:52;99586.62;;;0.84;95.25
53526;BME280;40551;50.478;19.378;2023-01-25T07:17:22;99587.73;;;0.88;95.24
53526;BME280;40551;50.478;19.378;2023-01-25T07:19:54;99588.63;;;0.87;95.30
53526;BME280;40551;50.478;19.378;2023-01-25T07:22:24;99584.98;;;0.89;95.05
53526;BME280;40551;50.478;19.378;2023-01-25T07:24:56;99583.47;;;0.88;95.50
53526;BME280;40551;50.478;19.378;2023-01-25T07:27:28;99584.05;;;0.93;95.15
53526;BME280;40551;50.478;19.378;2023-01-25T07:30:03;99582.45;;;0.96;95.26
53526;BME280;40551;50.478;19.378;2023-01-25T07:32:35;99580.64;;;1.01;95.31
53526;BME280;40551;50.478;19.378;2023-01-25T07:35:09;99574.59;;;1.04;95.39
53526;BME280;40551;50.478;19.378;2023-01-25T07:37:41;99575.20;;;1.07;95.22
53526;BME280;40551;50.478;19.378;2023-01-25T07:40:11;99572.42;;;1.09;95.27
53526;BME280;40551;50.478;19.378;2023-01-25T07:42:44;99575.91;;;1.06;94.93
53526;BME280;40551;50.478;19.378;2023-01-25T07:45:16;99579.10;;;1.09;95.08
53526;BME280;40551;50.478;19.378;2023-01-25T07:47:48;99582.13;;;1.11;94.95
53526;BME280;40551;50.478;19.378;2023-01-25T07:50:18;99581.76;;;1.12;95.08
53526;BME280;40551;50.478;19.378;2023-01-25T07:52:50;99580.61;;;1.10;95.19
53526;BME280;40551;50.478;19.378;2023-01-25T07:55:20;99581.38;;;1.14;95.28
53526;BME280;40551;50.478;19.378;2023-01-25T07:57:55;99576.84;;;1.10;95.08
53526;BME280;40551;50.478;19.378;2023-01-25T08:00:27;99567.39;;;1.13;94.98
53526;BME280;40551;50.478;19.378;2023-01-25T08:02:59;99565.64;;;1.15;95.05
53526;BME280;40551;50.478;19.378;2023-01-25T08:05:29;99557.70;;;1.11;94.27
53526;BME280;40551;50.478;19.378;2023-01-25T08:08:00;99556.85;;;1.02;94.33
53526;BME280;40551;50.478;19.378;2023-01-25T08:10:33;99557.05;;;1.01;94.29
53526;BME280;40551;50.478;19.378;2023-01-25T08:13:03;99556.40;;;0.99;94.07
53526;BME280;40551;50.478;19.378;2023-01-25T08:15:36;99552.95;;;0.93;93.90
53526;BME280;40551;50.478;19.378;2023-01-25T08:18:08;99555.83;;;0.95;94.09
53526;BME280;40551;50.478;19.378;2023-01-25T08:20:39;99550.29;;;0.98;94.53
53526;BME280;40551;50.478;19.378;2023-01-25T08:23:10;99546.36;;;0.97;94.63
53526;BME280;40551;50.478;19.378;2023-01-25T08:25:40;99538.90;;;1.03;94.66
53526;BME280;40551;50.478;19.378;2023-01-25T08:28:12;99538.02;;;1.04;94.90
53526;BME280;40551;50.478;19.378;2023-01-25T08:30:42;99535.83;;;1.11;94.82
53526;BME280;40551;50.478;19.378;2023-01-25T08:33:26;99537.73;;;1.09;94.48
53526;BME280;40551;50.478;19.378;2023-01-25T08:35:56;99538.88;;;1.11;94.44
53526;BME280;40551;50.478;19.378;2023-01-25T08:38:28;99543.08;;;1.08;94.40
53526;BME280;40551;50.478;19.378;2023-01-25T08:41:06;99536.38;;;1.09;94.30
53526;BME280;40551;50.478;19.378;2023-01-25T08:43:38;99539.95;;;1.10;94.23
53526;BME280;40551;50.478;19.378;2023-01-25T08:46:10;99537.71;;;1.10;94.47
53526;BME280;40551;50.478;19.378;2023-01-25T08:48:43;99534.57;;;1.13;94.38
53526;BME280;40551;50.478;19.378;2023-01-25T08:51:16;99537.09;;;1.16;94.50
53526;BME280;40551;50.478;19.378;2023-01-25T08:53:48;99527.67;;;1.16;94.05
53526;BME280;40551;50.478;19.378;2023-01-25T08:56:18;99527.88;;;1.15;93.94
53526;BME280;40551;50.478;19.378;2023-01-25T08:58:50;99530.82;;;1.13;94.43
53526;BME280;40551;50.478;19.378;2023-01-25T09:01:22;99528.55;;;1.15;94.17
53526;BME280;40551;50.478;19.378;2023-01-25T09:03:54;99524.97;;;1.15;93.85
53526;BME280;40551;50.478;19.378;2023-01-25T09:06:26;99521.67;;;1.16;93.92
53526;BME280;40551;50.478;19.378;2023-01-25T09:08:56;99513.14;;;1.17;94.10
53526;BME280;40551;50.478;19.378;2023-01-25T09:11:28;99508.97;;;1.12;93.95
53526;BME280;40551;50.478;19.378;2023-01-25T09:14:01;99509.95;;;1.14;93.87
53526;BME280;40551;50.478;19.378;2023-01-25T09:16:32;99506.16;;;1.15;94.06
53526;BME280;40551;50.478;19.378;2023-01-25T09:19:04;99506.57;;;1.12;93.95
53526;BME280;40551;50.478;19.378;2023-01-25T09:21:36;99508.52;;;1.17;94.02
53526;BME280;40551;50.478;19.378;2023-01-25T09:24:09;99505.72;;;1.20;93.91
53526;BME280;40551;50.478;19.378;2023-01-25T09:26:41;99504.45;;;1.22;93.81
53526;BME280;40551;50.478;19.378;2023-01-25T09:29:25;99490.65;;;1.28;93.94
53526;BME280;40551;50.478;19.378;2023-01-25T09:31:57;99491.90;;;1.33;94.01
53526;BME280;40551;50.478;19.378;2023-01-25T09:34:33;99479.98;;;1.38;94.17
53526;BME280;40551;50.478;19.378;2023-01-25T09:37:03;99479.83;;;1.44;94.14
53526;BME280;40551;50.478;19.378;2023-01-25T09:39:35;99484.10;;;1.44;94.34
53526;BME280;40551;50.478;19.378;2023-01-25T09:45:12;99469.91;;;1.51;94.41
53526;BME280;40551;50.478;19.378;2023-01-25T09:47:52;99476.70;;;1.59;94.17
53526;BME280;40551;50.478;19.378;2023-01-25T09:50:38;99483.14;;;1.62;93.52
53526;BME280;40551;50.478;19.378;2023-01-25T09:53:26;99476.14;;;1.62;93.29
53526;BME280;40551;50.478;19.378;2023-01-25T09:56:07;99480.96;;;1.61;93.25
53526;BME280;40551;50.478;19.378;2023-01-25T09:58:43;99477.55;;;1.60;93.21
53526;BME280;40551;50.478;19.378;2023-01-25T10:01:24;99469.02;;;1.59;92.95
53526;BME280;40551;50.478;19.378;2023-01-25T10:04:13;99467.59;;;1.61;92.96
53526;BME280;40551;50.478;19.378;2023-01-25T10:06:50;99467.36;;;1.64;92.98
53526;BME280;40551;50.478;19.378;2023-01-25T10:09:40;99463.39;;;1.65;92.71
53526;BME280;40551;50.478;19.378;2023-01-25T10:12:18;99449.87;;;1.66;92.41
53526;BME280;40551;50.478;19.378;2023-01-25T10:14:52;99449.72;;;1.65;92.09
53526;BME280;40551;50.478;19.378;2023-01-25T10:17:28;99445.13;;;1.64;91.93
53526;BME280;40551;50.478;19.378;2023-01-25T10:20:18;99443.23;;;1.65;92.26
53526;BME280;40551;50.478;19.378;2023-01-25T10:23:04;99437.66;;;1.68;92.59
53526;BME280;40551;50.478;19.378;2023-01-25T10:25:39;99433.51;;;1.70;92.23
53526;BME280;40551;50.478;19.378;2023-01-25T10:28:23;99434.29;;;1.73;92.46
53526;BME280;40551;50.478;19.378;2023-01-25T10:31:01;99430.08;;;1.76;92.58
53526;BME280;40551;50.478;19.378;2023-01-25T10:33:38;99427.73;;;1.81;92.88
53526;BME280;40551;50.478;19.378;2023-01-25T10:36:16;99424.83;;;1.87;92.76
53526;BME280;40551;50.478;19.378;2023-01-25T10:38:49;99423.01;;;1.91;92.45
53526;BME280;40551;50.478;19.378;2023-01-25T10:41:31;99417.27;;;1.95;92.46
53526;BME280;40551;50.478;19.378;2023-01-25T10:44:11;99419.13;;;1.95;92.08
53526;BME280;40551;50.478;19.378;2023-01-25T10:46:57;99414.58;;;1.92;91.67
53526;BME280;40551;50.478;19.378;2023-01-25T10:49:38;99412.18;;;1.93;91.68
53526;BME280;40551;50.478;19.378;2023-01-25T10:52:16;99403.00;;;1.91;91.51
53526;BME280;40551;50.478;19.378;2023-01-25T10:55:01;99404.91;;;1.90;91.72
53526;BME280;40551;50.478;19.378;2023-01-25T10:57:39;99403.89;;;1.90;91.54
53526;BME280;40551;50.478;19.378;2023-01-25T11:00:24;99397.32;;;1.86;91.35
53526;BME280;40551;50.478;19.378;2023-01-25T11:02:59;99388.92;;;1.86;91.59
53526;BME280;40551;50.478;19.378;2023-01-25T11:05:33;99382.23;;;1.87;91.73
53526;BME280;40551;50.478;19.378;2023-01-25T11:08:22;99369.17;;;1.89;91.78
53526;BME280;40551;50.478;19.378;2023-01-25T11:10:55;99357.98;;;1.92;92.00
53526;BME280;40551;50.478;19.378;2023-01-25T11:13:31;99341.46;;;1.95;91.97
53526;BME280;40551;50.478;19.378;2023-01-25T11:16:18;99330.61;;;1.97;91.86
53526;BME280;40551;50.478;19.378;2023-01-25T11:18:56;99341.92;;;1.97;91.93
53526;BME280;40551;50.478;19.378;2023-01-25T11:21:29;99343.91;;;1.93;91.53
53526;BME280;40551;50.478;19.378;2023-01-25T11:24:11;99340.45;;;1.89;91.16
53526;BME280;40551;50.478;19.378;2023-01-25T11:26:46;99330.06;;;1.87;91.23
53526;BME280;40551;50.478;19.378;2023-01-25T11:29:19;99328.86;;;1.87;91.66
53526;BME280;40551;50.478;19.378;2023-01-25T11:31:53;99328.50;;;1.88;91.49
53526;BME280;40551;50.478;19.378;2023-01-25T11:34:28;99326.05;;;1.89;91.36
53526;BME280;40551;50.478;19.378;2023-01-25T11:37:14;99326.70;;;1.90;90.98
53526;BME280;40551;50.478;19.378;2023-01-25T11:39:54;99324.15;;;1.90;90.88
53526;BME280;40551;50.478;19.378;2023-01-25T11:42:36;99318.18;;;1.89;90.32
53526;BME280;40551;50.478;19.378;2023-01-25T11:48:26;99312.93;;;1.82;89.91
53526;BME280;40551;50.478;19.378;2023-01-25T11:51:05;99310.83;;;1.89;90.58
53526;BME280;40551;50.478;19.378;2023-01-25T11:53:48;99310.70;;;1.93;90.08
53526;BME280;40551;50.478;19.378;2023-01-25T11:56:31;99304.38;;;1.93;89.66
53526;BME280;40551;50.478;19.378;2023-01-25T11:59:20;99300.99;;;1.97;89.95
53526;BME280;40551;50.478;19.378;2023-01-25T12:02:20;99306.33;;;2.02;89.56
53526;BME280;40551;50.478;19.378;2023-01-25T12:05:06;99306.42;;;2.05;89.57
53526;BME280;40551;50.478;19.378;2023-01-25T12:07:57;99296.34;;;2.10;89.44
53526;BME280;40551;50.478;19.378;2023-01-25T12:10:41;99288.27;;;2.16;89.60
53526;BME280;40551;50.478;19.378;2023-01-25T12:13:23;99288.38;;;2.18;88.86
53526;BME280;40551;50.478;19.378;2023-01-25T12:16:17;99280.84;;;2.19;88.46
53526;BME280;40551;50.478;19.378;2023-01-25T12:19:13;99281.64;;;2.21;88.50
53526;BME280;40551;50.478;19.378;2023-01-25T12:22:01;99270.68;;;2.27;88.72
53526;BME280;40551;50.478;19.378;2023-01-25T12:24:46;99258.43;;;2.35;88.84
53526;BME280;40551;50.478;19.378;2023-01-25T12:27:30;99259.66;;;2.44;89.01
53526;BME280;40551;50.478;19.378;2023-01-25T12:30:14;99257.17;;;2.47;88.77
53526;BME280;40551;50.478;19.378;2023-01-25T12:32:50;99248.11;;;2.47;88.51
53526;BME280;40551;50.478;19.378;2023-01-25T12:35:35;99250.02;;;2.52;88.89
53526;BME280;40551;50.478;19.378;2023-01-25T12:38:36;99252.36;;;2.53;88.50
53526;BME280;40551;50.478;19.378;2023-01-25T12:41:18;99247.98;;;2.51;87.82
53526;BME280;40551;50.478;19.378;2023-01-25T12:43:55;99243.13;;;2.48;87.39
53526;BME280;40551;50.478;19.378;2023-01-25T12:46:35;99240.56;;;2.48;87.79
53526;BME280;40551;50.478;19.378;2023-01-25T12:49:16;99238.48;;;2.43;87.15
53526;BME280;40551;50.478;19.378;2023-01-25T12:51:50;99241.80;;;2.35;86.76
53526;BME280;40551;50.478;19.378;2023-01-25T12:54:28;99233.76;;;2.30;86.68
53526;BME280;40551;50.478;19.378;2023-01-25T12:57:14;99226.48;;;2.27;86.56
53526;BME280;40551;50.478;19.378;2023-01-25T12:59:55;99223.59;;;2.27;86.61
53526;BME280;40551;50.478;19.378;2023-01-25T13:02:51;99220.71;;;2.26;86.74
53526;BME280;40551;50.478;19.378;2023-01-25T13:05:33;99220.05;;;2.25;86.58
53526;BME280;40551;50.478;19.378;2023-01-25T13:08:13;99217.56;;;2.23;86.54
53526;BME280;40551;50.478;19.378;2023-01-25T13:11:08;99217.74;;;2.17;86.37
53526;BME280;40551;50.478;19.378;2023-01-25T13:13:42;99211.39;;;2.12;85.93
53526;BME280;40551;50.478;19.378;2023-01-25T13:16:35;99210.73;;;2.01;85.61
53526;BME280;40551;50.478;19.378;2023-01-25T13:19:19;99203.75;;;1.89;85.50
53526;BME280;40551;50.478;19.378;2023-01-25T13:21:51;99197.02;;;1.80;85.67
53526;BME280;40551;50.478;19.378;2023-01-25T13:24:27;99191.63;;;1.77;85.96
53526;BME280;40551;50.478;19.378;2023-01-25T13:27:04;99192.42;;;1.73;86.10
53526;BME280;40551;50.478;19.378;2023-01-25T13:30:13;99185.51;;;1.70;86.13
53526;BME280;40551;50.478;19.378;2023-01-25T13:32:58;99186.30;;;1.67;86.09
53526;BME280;40551;50.478;19.378;2023-01-25T13:35:38;99183.77;;;1.65;86.19
53526;BME280;40551;50.478;19.378;2023-01-25T13:38:29;99177.23;;;1.62;85.87
53526;BME280;40551;50.478;19.378;2023-01-25T13:41:16;99171.91;;;1.61;85.91
53526;BME280;40551;50.478;19.378;2023-01-25T13:43:53;99168.64;;;1.62;86.00
53526;BME280;40551;50.478;19.378;2023-01-25T13:46:26;99160.29;;;1.62;85.83
53526;BME280;40551;50.478;19.378;2023-01-25T13:49:02;99160.48;;;1.61;85.50
53526;BME280;40551;50.478;19.378;2023-01-25T13:51:37;99161.66;;;1.61;85.73